Tiempo atmosférico en la estación meteorológica de Zumarraga, Gipuzkoa (420 m.)



Fecha
DESCASC
Temp. máxima en grados centígrados (hora)
DESCASC
Temp. mínima en grados centígrados (hora)
DESCASC
Temp. media en grados centígrados
DESCASC
Racha de viento máxima en m/sg (hora)
DESCASC
Velocidad máxima media en intervalos de 10 minutos(hora)
DESCASC
Precipitaciones diarias en mm
DESCASC
Precipitaciones de 00:00 a 06:00 en mm
DESCASC
Precipitaciones de 06:00 a 12:00 en mm
DESCASC
Precipitaciones de 12:00 a 18:00 en mm
DESCASC
Precipitaciones de 18:00 a 24:00 en mm
DESCASC
05-04-2020 17.3 (15:00) 9 (06:50) 13.1 12.5 (15:10) 5.56 (13:00) 0.4 0 0 0 0.4
04-04-2020 19.1 (17:00) 1.3 (04:20) 10.2 13.61 (13:50) 5.83 (11:40) 0 0 0 0 0
03-04-2020 12.4 (17:00) 0.1 (08:10) 6.2 5.56 (17:20) 2.78 (18:20) 0 0 0 0 0
02-04-2020 12.3 (16:20) 5.4 (00:00) 8.9 8.89 (22:20) 4.44 (21:10) 0.2 0.2 0 0 0
01-04-2020 11.5 (15:10) 4.2 (00:00) 7.8 9.44 (13:50) 3.33 (14:20) 0.3 0 0.1 0 0.2
31-03-2020 5.3 (18:20) -1.2 (-00:0) 2.1 3.06 (00:10) 1.39 (12:40) 2.7 0 1.5 1.1 0.1
30-03-2020 3.4 (15:10) -0.8 (-00:0) 1.3 9.44 (09:30) 3.61 (17:20) 9.7 1.6 4.2 2.8 1.1
29-03-2020 11.7 (14:30) 0.5 (00:00) 6.1 9.44 (18:30) 4.17 (19:00) 0.6 0 0 0 0.6
28-03-2020 14.3 (14:20) 0.3 (00:00) 7.3 6.11 (16:30) 2.78 (17:40) 0 0 0 0 0
27-03-2020 12.9 (15:20) -1.5 (-00:0) 5.7 7.5 (17:30) 4.17 (17:30) 0 0 0 0 0
26-03-2020 9.3 (14:00) 0.4 (00:00) 4.9 11.94 (10:00) 6.39 (09:50) 0 0 0 0 0
25-03-2020 14.5 (14:40) 3.9 (00:00) 9.2 11.11 (17:20) 6.11 (16:50) 0 0 0 0 0
24-03-2020 16.4 (14:40) 5.7 (00:00) 11 6.94 (15:50) 3.61 (16:40) 0 0 0 0 0
23-03-2020 14.3 (15:20) 7.5 (00:00) 10.9 4.72 (17:30) 2.5 (17:50) 1.1 0 0 0 1.1
22-03-2020 15.7 (14:40) 4.6 (07:30) 10.1 6.67 (17:00) 3.33 (15:10) 0 0 0 0 0
21-03-2020 16 (15:40) 7.5 (00:00) 11.8 8.61 (01:40) 3.89 (01:40) 0 0 0 0 0
20-03-2020 14.7 (14:50) 9.1 (00:00) 11.9 13.33 (10:40) 4.44 (13:10) 0 0 0 0 0
19-03-2020 17.7 (13:40) 9.4 (00:00) 13.6 9.17 (12:00) 3.89 (14:20) 0 0 0 0 0
18-03-2020 17.8 (15:40) 6.2 (00:00) 12 3.33 (16:20) 1.39 (13:50) 0 0 0 0 0
17-03-2020 9.8 (16:10) 6.7 (00:00) 8.3 2.78 (11:40) 0.83 (08:40) 2.8 2.4 0.4 0 0
16-03-2020 7.3 (14:20) 3.4 (00:00) 5.4 8.33 (07:20) 4.72 (09:10) 49.5 16.4 22.3 7.2 3.6
15-03-2020 18.7 (14:20) 2.4 (00:00) 10.6 8.89 (10:00) 4.44 (22:30) 13.3 0 0 0 13.3
14-03-2020 13.1 (15:40) -0.1 (00:00) 6.5 6.11 (11:50) 3.89 (11:50) 0 0 0 0 0
13-03-2020 10 (14:40) 3.3 (23:50) 6.6 5.56 (14:30) 2.5 (16:10) 1.7 0.9 0.8 0 0
12-03-2020 10.8 (13:00) 7.6 (00:00) 9.2 5.56 (23:40) 2.78 (04:20) 0.3 0 0 0 0.3
11-03-2020 21 (15:40) 4.3 (00:00) 12.7 5.28 (21:50) 2.5 (21:50) 0 0 0 0 0
10-03-2020 15.8 (15:20) 2.8 (00:00) 9.3 5.28 (17:20) 2.5 (14:20) 0 0 0 0 0
09-03-2020 8 (00:10) 5.1 (00:00) 6.5 19.72 (00:40) 6.39 (00:40) 13.2 3.2 4.7 5.3 0
08-03-2020 13.4 (15:10) -0.1 (00:00) 6.6 11.67 (22:40) 5.83 (18:50) 0.1 0 0 0.1 0

Gráficas

Temp. máximas Temp. mínimas Temp. medias Precipitaciones Rachas de viento máximas Velocidades máximas media en intervalos de 10 minutos

Datos horarios

Fecha y hora oficial Temperatura (ºC) Velocidad del viento (km/h) Dirección del viento Racha (km/h) Dirección de racha Precipitación (mm) Presión (hPa) Tendencia (hPa) Humedad (%)
2020-04-06 23:00:00 9.5 2 Oeste 8 Oeste 0.1 972.9 1 99
2020-04-06 22:00:00 9.8 0 Calma 2 Sur 0.2 972.8 1.3 99
2020-04-06 21:00:00 10 0 Calma 3 Este 0.5 972.1 0.9 99
2020-04-06 20:00:00 9.8 0 Calma 17 Oeste 2 971.9 1 99
2020-04-06 19:00:00 10.5 2 Oeste 10 Oeste 1.3 971.5 0.8 98
2020-04-06 18:00:00 11.2 5 Noroeste 19 Oeste 0.3 971.2 0.8 96
2020-04-06 17:00:00 12.7 10 Oeste 26 Oeste 0 970.9 0.9 82
2020-04-06 16:00:00 15.1 4 Oeste 15 Noroeste 0 970.7 1 63
2020-04-06 15:00:00 14.7 2 Sudeste 17 Sudeste 0 970.4 0.8 57
2020-04-06 14:00:00 14.5 6 Sudeste 19 Sudeste 0 970 1.1 58
2020-04-06 13:00:00 14.1 7 Sudeste 22 Este 0 969.7 1.2 60
2020-04-06 12:00:00 12.8 5 Este 19 Sudeste 0 969.6 1.8 63
2020-04-06 11:00:00 11.7 6 Sudeste 21 Sudeste 0 968.9 1.7 67
2020-04-06 10:00:00 11.3 8 Sudeste 24 Sudeste 0.1 968.5 1.8 67
2020-04-06 09:00:00 11 6 Este 30 Sudeste 0 967.8 1.2 65
2020-04-06 08:00:00 10.8 8 Sudeste 21 Este 0 967.2 1 64
2020-04-06 07:00:00 10.6 3 Este 29 Sudeste 0 966.7 0.4 65
2020-04-06 06:00:00 11 6 Sudeste 25 Sudeste 0 966.6 0.5 67
2020-04-06 05:00:00 11.3 6 Sudeste 27 Sudeste 0 966.2 0.2 67
2020-04-06 04:00:00 11.5 8 Sudeste 31 Sudeste 0 966.3 0.5 69
2020-04-06 03:00:00 12.5 5 Sudeste 31 Sudeste 0 966.1 0.6 64
2020-04-06 02:00:00 12.4 10 Sudeste 36 Este 0 966 0.6 67
2020-04-06 01:00:00 12.4 10 Sudeste 40 Este 0.1 965.8 1.1 72
2020-04-06 00:00:00 12 10 Sudeste 32 Sudeste 0.4 965.5 1.7 72
2020-04-05 23:00:00 14 6 Sudeste 34 Sudeste 0 965.4 2.1 54
2020-04-05 22:00:00 14 4 Sudeste 35 Sudeste 0 964.7 1.7 55
2020-04-05 21:00:00 14.1 4 Sudeste 37 Este 0 963.8 0.8 54
2020-04-05 20:00:00 15.2 11 Sudeste 35 Sudeste 0 963.3 0.2 52
2020-04-05 19:00:00 15.6 9 Sudeste 36 Sudeste 0 963 -0.6 51
2020-04-05 18:00:00 16.3 8 Sudeste 34 Sudeste 0 963 -1 49
2020-04-05 17:00:00 16.7 10 Sudeste 45 Sudeste 0 963.1 -1.3 49
2020-04-05 16:00:00 16.9 13 Sudeste 45 Este 0 963.6 -1.2 49
2020-04-05 15:00:00 16.5 16 Sudeste 42 Sudeste 0 964 -0.9 49
2020-04-05 14:00:00 16.2 14 Sudeste 44 Sudeste 0 964.4 -0.6 47
2020-04-05 13:00:00 14.8 20 Sudeste 42 Sudeste 0 964.8 0 49
2020-04-05 12:00:00 14.1 16 Sudeste 37 Sudeste 0 964.9 -0.3 52
2020-04-05 11:00:00 11.5 11 Sudeste 38 Sudeste 0 965 0.1 57
2020-04-05 10:00:00 10.5 13 Sudeste 38 Este 0 964.8 0.5 60
2020-04-05 09:00:00 9.5 13 Sudeste 37 Sudeste 0 965.2 0.8 61
2020-04-05 08:00:00 9.2 12 Sudeste 38 Este 0 964.9 0.5 61
2020-04-05 07:00:00 9.2 4 Sudeste 32 Este 0 964.3 -0.4 61
2020-04-05 06:00:00 9.2 8 Este 41 Sudeste 0 964.4 -0.5 62
2020-04-05 05:00:00 9.6 11 Este 40 Sudeste 0 964.4 -1 62
2020-04-05 04:00:00 10.4 10 Sudeste 39 Sudeste 0 964.7 -0.8 60
2020-04-05 03:00:00 10.9 13 Sudeste 36 Sudeste 0 964.9 0 56
2020-04-05 02:00:00 11.1 7 Sudeste 27 Este 0 965.4 0.3 53
2020-04-05 01:00:00 12 10 Sudeste 32 Este 0 965.5 1.4 50
2020-04-05 00:00:00 12.6 7 Sudeste 30 Este 0 964.9 1.5 49
2020-04-04 23:00:00 13.3 5 Sudeste 37 Este 0 965.1 1.8 46
2020-04-04 22:00:00 14 12 Sudeste 38 Sudeste 0 964.1 1.3 44
2020-04-04 21:00:00 14.5 13 Sudeste 38 Sudeste 0 963.4 0.5 43
2020-04-04 20:00:00 15.3 4 Sudeste 22 Este 0 963.3 0 40
2020-04-04 19:00:00 16.7 7 Este 33 Este 0 962.8 -0.9 34
2020-04-04 18:00:00 17.6 14 Este 32 Sudeste 0 962.9 -1.3 32
2020-04-04 17:00:00 18.3 6 Sudeste 31 Este 0 963.3 -1.5 31
2020-04-04 16:00:00 18.3 6 Sudeste 35 Sudeste 0 963.7 -1.8 30
2020-04-04 15:00:00 17.3 10 Sudeste 35 Sudeste 0 964.2 -1.6 32
2020-04-04 14:00:00 16.5 11 Sudeste 49 Sudeste 0 964.8 -1.1 34
2020-04-04 13:00:00 15.7 12 Sudeste 40 Sudeste 0 965.5 -0.3 38
2020-04-04 12:00:00 14.3 18 Sudeste 39 Sudeste 0 965.8 -0.2 43
2020-04-04 11:00:00 12.7 11 Este 31 Este 0 965.9 0.2 49
2020-04-04 10:00:00 10.5 9 Este 24 Este 0 965.8 0.3 55
2020-04-04 09:00:00 8 3 Este 14 Nordeste 0 966 0.5 62
2020-04-04 08:00:00 4.7 0 Calma 0 Calma 0 965.7 0.1 75
2020-04-04 07:00:00 4.1 0 Calma 0 Calma 0 965.5 -0.4 81
2020-04-04 06:00:00 3.3 0 Calma 2 Oeste 0 965.5 -0.6 89
2020-04-04 05:00:00 1.8 0 Calma 5 Sudoeste 0 965.6 -0.8 97
2020-04-04 04:00:00 2.3 0 Calma 3 Sudoeste 0 965.9 -0.9 96
2020-04-04 03:00:00 2.1 0 Calma 0 Calma 0 966.1 -1 95
2020-04-04 02:00:00 2.3 0 Calma 0 Calma 0 966.4 -0.8 94
2020-04-04 01:00:00 2.8 0 Calma 0 Calma 0 966.8 -0.2 92
2020-04-04 00:00:00 3.3 0 Calma 0 Calma 0 967.1 0.5 89
2020-04-03 23:00:00 4 0 Calma 0 Calma 0 967.2 0.6 87
2020-04-03 22:00:00 4.9 0 Calma 2 Norte 0 967 0.6 81
2020-04-03 21:00:00 6.8 0 Calma 13 Norte 0 966.6 0.4 67
2020-04-03 20:00:00 8.9 4 Norte 17 Noroeste 0 966.6 -0.1 57
2020-04-03 19:00:00 10.5 10 Noroeste 17 Norte 0 966.4 -0.7 52
2020-04-03 18:00:00 11.4 6 Norte 20 Noroeste 0 966.2 -1.7 50
2020-04-03 17:00:00 12.1 3 Norte 18 Este 0 966.7 -1.8 49
2020-04-03 16:00:00 11.3 3 Nordeste 13 Nordeste 0 967.1 -2 49
2020-04-03 15:00:00 10.9 3 Norte 15 Este 0 967.9 -1.5 49
2020-04-03 14:00:00 9.5 4 Norte 19 Este 0 968.5 -0.5 52
2020-04-03 13:00:00 9 4 Este 12 Este 0 969.1 0.6 58
2020-04-03 12:00:00 7.2 4 Noroeste 13 Noroeste 0 969.4 0.8 64
2020-04-03 11:00:00 5.9 0 Calma 7 Oeste 0 969 0.8 84
2020-04-03 10:00:00 2.9 0 Calma 9 Oeste 0 968.5 0.6 99
2020-04-03 09:00:00 0.7 3 Oeste 10 Oeste 0 968.6 0.6 99
2020-04-03 08:00:00 0.3 3 Oeste 10 Sudoeste 0 968.2 0.2 99
2020-04-03 07:00:00 0.4 2 Sudoeste 8 Oeste 0 967.9 -0.2 99
2020-04-03 06:00:00 1 0 Calma 8 Sudoeste 0 968 -0.5 98
2020-04-03 05:00:00 1.6 0 Calma 10 Oeste 0 968 -0.6 94
2020-04-03 04:00:00 2.9 2 Oeste 10 Sudoeste 0 968.1 -0.4 93
2020-04-03 03:00:00 3.2 3 Sudoeste 12 Sur 0 968.5 0 91
2020-04-03 02:00:00 3.6 0 Calma 8 Oeste 0 968.6 0.5 91
2020-04-03 01:00:00 4.6 3 Oeste 14 Oeste 0 968.5 0.8 86
2020-04-03 00:00:00 5.5 6 Oeste 21 Noroeste 0 968.5 1.7 76
2020-04-02 23:00:00 6 9 Noroeste 32 Oeste 0 968.1 1.9 73
2020-04-02 22:00:00 6.5 15 Oeste 29 Oeste 0 967.7 2.1 70
2020-04-02 21:00:00 7 13 Oeste 26 Oeste 0 966.8 1.9 67
2020-04-02 20:00:00 8.1 9 Noroeste 27 Noroeste 0 966.2 1.6 65
2020-04-02 19:00:00 9.4 12 Noroeste 25 Noroeste 0 965.6 0.9 64
2020-04-02 18:00:00 10.4 10 Noroeste 30 Norte 0 964.9 0.4 58
2020-04-02 17:00:00 12 5 Norte 19 Noroeste 0 964.6 0.2 58
2020-04-02 16:00:00 11.4 4 Norte 17 Norte 0 964.7 -0.1 61
2020-04-02 15:00:00 12.2 6 Norte 21 Noroeste 0 964.5 0.1 63
2020-04-02 14:00:00 11.9 5 Norte 16 Noroeste 0 964.4 0.3 67
2020-04-02 13:00:00 11 5 Norte 21 Noroeste 0 964.8 1.4 70
2020-04-02 12:00:00 9.6 9 Noroeste 18 Oeste 0 964.4 1.4 80
2020-04-02 11:00:00 8.6 5 Oeste 15 Oeste 0 964.1 1.5 92
2020-04-02 10:00:00 7.3 4 Oeste 14 Oeste 0 963.4 1.1 99
2020-04-02 09:00:00 6.5 5 Oeste 13 Oeste 0 963 0.9 99
2020-04-02 08:00:00 6.1 0 Calma 6 Oeste 0 962.6 0.4 99
2020-04-02 07:00:00 6.2 0 Calma 5 Oeste 0 962.3 -0.2 99
2020-04-02 06:00:00 6.5 0 Calma 8 Oeste 0 962.1 -0.5 99
2020-04-02 05:00:00 6.8 0 Calma 4 Sudoeste 0 962.2 -0.7 99
2020-04-02 04:00:00 6.9 0 Calma 6 Oeste 0 962.5 -0.7 99
2020-04-02 03:00:00 7 0 Calma 5 Oeste 0 962.6 -0.9 99
2020-04-02 02:00:00 7.1 0 Calma 2 Sudoeste 0.1 962.9 -0.5 99
2020-04-02 01:00:00 7.2 0 Calma 5 Sur 0.1 963.2 0 99
2020-04-02 00:00:00 7.4 0 Calma 0 Calma 0.1 963.5 0.9 96
2020-04-01 23:00:00 8.2 0 Calma 0 Calma 0 963.4 1.3 88
2020-04-01 22:00:00 8.4 0 Calma 0 Calma 0 963.2 1.3 87
2020-04-01 21:00:00 8.3 0 Calma 6 Sudoeste 0 962.6 0.5 83
2020-04-01 20:00:00 9 0 Calma 4 Este 0 962.1 -0.1 83
2020-04-01 19:00:00 9.7 3 Sudeste 23 Sudeste 0.1 961.9 -0.4 75
2020-04-01 18:00:00 10.6 3 Sudeste 18 Sudeste 0 962.1 -0.4 67
2020-04-01 17:00:00 10.5 7 Este 23 Este 0 962.2 -0.4 66
2020-04-01 16:00:00 11.1 9 Este 24 Este 0 962.3 -0.7 62
2020-04-01 15:00:00 11.3 6 Sudeste 30 Este 0 962.5 -0.4 62
2020-04-01 14:00:00 10.8 10 Sudeste 34 Este 0 962.6 -0.2 61
2020-04-01 13:00:00 10.7 9 Sudeste 25 Sudeste 0 963 0.6 66
2020-04-01 12:00:00 10.1 8 Sudeste 21 Sudeste 0 962.9 0.4 70
2020-04-01 11:00:00 10 6 Sudeste 26 Este 0 962.8 0.7 71
2020-04-01 10:00:00 8.7 3 Este 24 Sudeste 0 962.4 0.4 81
2020-04-01 09:00:00 8.1 0 Calma 13 Sudeste 0 962.5 0.4 85
2020-04-01 08:00:00 7.1 0 Calma 11 Sur 0 962.1 0 93
2020-04-01 07:00:00 7.1 3 Sudeste 17 Sudeste 0.1 962 -0.4 93
2020-04-01 06:00:00 6.6 0 Calma 15 Sudeste 0 962.1 -0.8 94
2020-04-01 05:00:00 6.5 0 Calma 12 Sudeste 0 962.1 -0.8 99
2020-04-01 04:00:00 5.7 0 Calma 7 Este 0 962.4 -0.5 99
2020-04-01 03:00:00 5.4 0 Calma 0 Calma 0 962.9 -0.3 99
2020-04-01 02:00:00 5.1 0 Calma 3 Este 0 962.9 -0.3 99
2020-04-01 01:00:00 4.6 0 Calma 7 Norte 0 962.9 -0.2 99
2020-04-01 00:00:00 4.4 0 Calma 7 Este 0 963.2 0.2 99
2020-03-31 23:00:00 4.5 4 Este 8 Este 0.1 963.2 0.5 99
2020-03-31 22:00:00 4.7 2 Este 6 Este 0 963.1 0.9 99
2020-03-31 21:00:00 4.5 0 Calma 2 Norte 0 963 0.6 99
2020-03-31 20:00:00 5 0 Calma 5 Este 0 962.7 0.6 99
2020-03-31 19:00:00 5.1 0 Calma 9 Este 0 962.2 -0.3 99
2020-03-31 18:00:00 5 0 Calma 9 Este 0 962.4 -0.3 99
2020-03-31 17:00:00 4.9 3 Nordeste 7 Nordeste 0.3 962.1 -0.8 99
2020-03-31 16:00:00 4.8 3 Este 9 Este 0.1 962.5 -0.7 99
2020-03-31 15:00:00 4.2 3 Este 8 Este 0 962.7 -0.7 99
2020-03-31 14:00:00 3.1 4 Nordeste 8 Nordeste 0.2 962.9 -0.7 99
2020-03-31 13:00:00 2.5 0 Calma 9 Este 0.5 963.2 -0.1 99
2020-03-31 12:00:00 1 0 Calma 7 Nordeste 0.2 963.4 0.1 99
2020-03-31 11:00:00 0.2 2 Este 6 Este 1.3 963.6 0.5 99
2020-03-31 10:00:00 -0.6 0 Calma 2 Nordeste 0 963.3 0.5 99
2020-03-31 09:00:00 -0.9 0 Calma 0 Calma 0 963.3 0.1 99
2020-03-31 08:00:00 -1 0 Calma 3 Este 0 963.1 0 99
2020-03-31 07:00:00 -1 0 Calma 5 Este 0 962.8 -0.8 99
2020-03-31 06:00:00 -0.7 0 Calma 5 Sudeste 0 963.2 -1.1 99
2020-03-31 05:00:00 -0.8 0 Calma 4 Sudeste 0 963.1 -1.4 99
2020-03-31 04:00:00 -1 0 Calma 0 Calma 0 963.6 -1.4 99
2020-03-31 03:00:00 -0.9 0 Calma 0 Calma 0 964.3 -1 99
2020-03-31 02:00:00 -1 0 Calma 4 Sudoeste 0 964.5 -1.3 99
2020-03-31 01:00:00 -0.7 0 Calma 11 Oeste 0 965 -1.1 99
2020-03-31 00:00:00 0 3 Oeste 12 Oeste 0 965.3 -0.6 99
2020-03-30 23:00:00 0 0 Calma 7 Oeste 0 965.8 -0.1 99
2020-03-30 22:00:00 0.2 0 Calma 14 Oeste 0 966.1 0.4 99
2020-03-30 21:00:00 0.4 7 Oeste 13 Oeste 0 965.9 0 99
2020-03-30 20:00:00 0.6 2 Oeste 17 Oeste 0.6 965.9 -0.2 99
2020-03-30 19:00:00 1.3 9 Oeste 12 Oeste 0.5 965.7 -0.8 93
2020-03-30 18:00:00 1.8 2 Oeste 22 Oeste 0 965.9 -1.2 86
2020-03-30 17:00:00 2.7 4 Noroeste 19 Noroeste 0 966.1 -1.7 79
2020-03-30 16:00:00 2.7 2 Nordeste 15 Noroeste 0.1 966.5 -1.6 80
2020-03-30 15:00:00 2.6 6 Oeste 19 Oeste 0 967.1 -1.8 89
2020-03-30 14:00:00 1.6 6 Oeste 23 Norte 0.5 967.8 -1.1 89
2020-03-30 13:00:00 0.7 6 Oeste 28 Oeste 2.2 968.1 -1 97
2020-03-30 12:00:00 -0.3 3 Noroeste 21 Noroeste 2.6 968.9 0.1 99
2020-03-30 11:00:00 1.6 3 Nordeste 12 Noroeste 0.7 968.9 0.1 94
2020-03-30 10:00:00 -0.6 0 Calma 34 Noroeste 0 969.1 0.4 99
2020-03-30 09:00:00 0.3 5 Oeste 17 Noroeste 0.3 968.8 -0.5 91
2020-03-30 08:00:00 0.5 7 Noroeste 19 Norte 0.1 968.8 -1 97
2020-03-30 07:00:00 0.1 2 Noroeste 15 Oeste 0.5 968.7 -1.7 99
2020-03-30 06:00:00 0 4 Oeste 13 Oeste 0.7 969.3 -1.8 99
2020-03-30 05:00:00 0.4 0 Calma 11 Oeste 0 969.8 -1.1 96
2020-03-30 04:00:00 0.5 0 Calma 16 Norte 0 970.4 -0.5 92
2020-03-30 03:00:00 0.9 3 Nordeste 26 Nordeste 0.6 971.1 0 97
2020-03-30 02:00:00 1.7 8 Norte 22 Noroeste 0.2 970.9 0.2 97
2020-03-30 01:00:00 2.1 8 Norte 27 Norte 0.1 970.9 0.4 97
2020-03-30 00:00:00 2.6 9 Norte 29 Noroeste 0.4 971.1 1 97
2020-03-29 23:00:00 3.7 13 Noroeste 29 Noroeste 0.2 970.7 1 96
2020-03-29 22:00:00 4.3 14 Noroeste 31 Oeste 0 970.5 0.8 97
2020-03-29 21:00:00 4.9 15 Noroeste 30 Noroeste 0 970.1 0.6 97
2020-03-29 20:00:00 5.5 10 Noroeste 26 Norte 0 969.7 0 99
2020-03-29 19:00:00 5.6 15 Noroeste 34 Noroeste 0 969.7 0.1 99
2020-03-29 18:00:00 5.9 8 Noroeste 31 Norte 0 969.5 -0.2 98
2020-03-29 17:00:00 6.3 10 Noroeste 28 Norte 0 969.7 -0.4 97
2020-03-29 16:00:00 8.6 10 Norte 22 Noroeste 0 969.6 -0.8 75
2020-03-29 15:00:00 10.1 8 Norte 22 Noroeste 0 969.7 -0.9 59
2020-03-29 14:00:00 10.5 8 Norte 22 Norte 0 970.1 -0.5 55
2020-03-29 13:00:00 9.6 8 Norte 23 Oeste 0 970.4 0.2 59
2020-03-29 12:00:00 9.2 14 Noroeste 23 Noroeste 0 970.6 0.3 67
2020-03-29 11:00:00 7.9 11 Oeste 21 Oeste 0 970.6 0.6 77
2020-03-29 10:00:00 5.6 3 Oeste 10 Sudoeste 0 970.2 0.6 92
2020-03-29 09:00:00 2.2 0 Calma 10 Oeste 0 970.3 0.6 99
2020-03-29 08:00:00 1.2 2 Sudoeste 9 Sudoeste 0 970 0.2 99
2020-03-29 07:00:00 0.8 2 Sudoeste 9 Sudoeste 0 969.6 -0.5 97
2020-03-29 06:00:00 0.9 0 Calma 5 Sudoeste 0 969.7 -0.5 94
2020-03-29 05:00:00 1.6 0 Calma 9 Sudoeste 0 969.8 -0.7 91
2020-03-29 03:00:00 1.6 2 Sudoeste 10 Sudoeste 0 970.2 -0.2 90
2020-03-29 01:00:00 2.7 2 Sudoeste 9 Sudoeste 0 970.5 0.2 85
2020-03-29 00:00:00 2.6 0 Calma 7 Sudoeste 0 970.4 0.5 83
2020-03-28 23:00:00 4 0 Calma 4 Oeste 0 970.4 1.5 71
2020-03-28 22:00:00 5.7 0 Calma 14 Sudoeste 0 970.3 2 64
2020-03-28 21:00:00 7.3 5 Oeste 15 Norte 0 969.9 2.1 57
2020-03-28 20:00:00 8.4 6 Noroeste 14 Noroeste 0 968.9 1.5 59
2020-03-28 19:00:00 10.1 6 Noroeste 16 Noroeste 0 968.3 0.8 49
2020-03-28 18:00:00 11.7 9 Noroeste 21 Noroeste 0 967.8 0.4 47
2020-03-28 17:00:00 12.4 7 Noroeste 22 Noroeste 0 967.4 -0.5 46
2020-03-28 16:00:00 12.4 7 Norte 21 Noroeste 0 967.5 -0.7 46
2020-03-28 15:00:00 13.7 6 Norte 17 Noroeste 0 967.4 -1 43
2020-03-28 14:00:00 13.3 7 Norte 18 Nordeste 0 967.9 -0.5 43
2020-03-28 13:00:00 13.5 6 Noroeste 17 Noroeste 0 968.2 -0.1 42
2020-03-28 12:00:00 12.9 10 Noroeste 17 Noroeste 0 968.4 0.3 41
2020-03-28 11:00:00 11.1 0 Calma 8 Este 0 968.4 0.7 50
2020-03-28 10:00:00 8.1 4 Este 8 Este 0 968.3 1.1 67
2020-03-28 09:00:00 4.8 2 Este 6 Este 0 968.1 1.2 84
2020-03-28 08:00:00 1.3 0 Calma 4 Sudoeste 0 967.7 1.3 99
2020-03-28 07:00:00 0.4 0 Calma 0 Calma 0 967.2 0.7 98
2020-03-28 06:00:00 1 0 Calma 6 Sudoeste 0 966.9 0.4 97
2020-03-28 05:00:00 0.5 3 Sudoeste 9 Sudoeste 0 966.4 -0.3 97
2020-03-28 04:00:00 1.2 0 Calma 4 Sudoeste 0 966.5 -0.2 97
2020-03-28 03:00:00 1.2 0 Calma 6 Sudoeste 0 966.5 -0.2 95
2020-03-28 02:00:00 1.6 0 Calma 6 Sudoeste 0 966.7 0 94
2020-03-28 01:00:00 2 0 Calma 8 Sudoeste 0 966.7 0.2 97
2020-03-28 00:00:00 2.1 0 Calma 4 Oeste 0 966.7 0.7 94
2020-03-27 23:00:00 3.3 0 Calma 7 Sudoeste 0 966.7 1.4 89
2020-03-27 22:00:00 4.2 0 Calma 5 Sudoeste 0 966.5 1.8 86
2020-03-27 21:00:00 5.1 0 Calma 10 Noroeste 0 966 2 82
2020-03-27 20:00:00 6 3 Noroeste 16 Norte 0 965.3 1.9 76
2020-03-27 19:00:00 7.1 6 Norte 22 Noroeste 0 964.7 1.5 67
2020-03-27 18:00:00 8.7 10 Norte 27 Norte 0 964 0.5 56
2020-03-27 17:00:00 10 8 Norte 24 Norte 0 963.4 -0.5 50
2020-03-27 16:00:00 11.4 10 Noroeste 17 Noroeste 0 963.2 -1.1 45
2020-03-27 15:00:00 11.7 3 Nordeste 14 Norte 0 963.5 -1.4 43
2020-03-27 14:00:00 11.4 5 Noroeste 17 Nordeste 0 963.9 -1.2 42
2020-03-27 13:00:00 10.1 5 Norte 22 Nordeste 0 964.3 -0.7 42
2020-03-27 12:00:00 9.8 5 Noroeste 15 Noroeste 0 964.9 0.2 46
2020-03-27 11:00:00 8.4 5 Norte 14 Noroeste 0 965.1 0.5 54
2020-03-27 10:00:00 6.3 0 Calma 8 Nordeste 0 965 0.6 63
2020-03-27 09:00:00 3.4 0 Calma 4 Nordeste 0 964.7 0.7 80
2020-03-27 08:00:00 -0.5 0 Calma 0 Calma 0 964.6 1.1 96
2020-03-27 07:00:00 -1.2 0 Calma 3 Sudoeste 0 964.4 1 96
2020-03-27 06:00:00 -1.3 0 Calma 8 Sudoeste 0 964 0.8 95
2020-03-27 05:00:00 -0.7 0 Calma 8 Sudoeste 0 963.5 0 94
2020-03-27 04:00:00 -1.1 2 Sudoeste 8 Sudoeste 0 963.4 0.2 94
2020-03-27 03:00:00 -0.6 3 Sudoeste 11 Sudoeste 0 963.2 0.1 91
2020-03-27 02:00:00 0.1 0 Calma 12 Sudoeste 0 963.5 0 88
2020-03-27 01:00:00 0.2 0 Calma 10 Sudoeste 0 963.2 -0.1 85
2020-03-27 00:00:00 0.4 2 Sudoeste 10 Sudoeste 0 963.1 -0.1 82
2020-03-26 23:00:00 1.3 0 Calma 7 Sudoeste 0 963.5 0.8 73
2020-03-26 22:00:00 2.5 0 Calma 18 Sudoeste 0 963.3 1 65
2020-03-26 21:00:00 3.7 5 Oeste 20 Noroeste 0 963.2 1.3 58
2020-03-26 20:00:00 4.7 7 Noroeste 21 Noroeste 0 962.7 1.2 55
2020-03-26 19:00:00 5.9 6 Noroeste 25 Noroeste 0 962.3 0.9 52
2020-03-26 18:00:00 6.5 8 Noroeste 26 Norte 0 961.9 0.5 50
2020-03-26 17:00:00 7.3 9 Norte 30 Noroeste 0 961.5 0 47
2020-03-26 16:00:00 8 13 Norte 33 Norte 0 961.4 -0.6 43
2020-03-26 15:00:00 8.7 13 Norte 37 Norte 0 961.4 -0.9 44
2020-03-26 14:00:00 8.8 14 Noroeste 34 Nordeste 0 961.5 -0.7 44
2020-03-26 13:00:00 7.7 10 Noroeste 37 Noroeste 0 962 0.2 52
2020-03-26 12:00:00 7.6 15 Noroeste 37 Noroeste 0 962.3 1 51
2020-03-26 11:00:00 7.1 13 Norte 41 Norte 0 962.2 0.8 51
2020-03-26 10:00:00 7.4 21 Noroeste 43 Noroeste 0 961.8 0.4 56
2020-03-26 09:00:00 6.9 18 Oeste 38 Oeste 0 961.3 0 63
2020-03-26 08:00:00 5.9 14 Oeste 32 Oeste 0 961.4 -0.1 82
2020-03-26 07:00:00 5.9 17 Oeste 28 Noroeste 0 961.4 -0.8 86
2020-03-26 06:00:00 5.5 16 Oeste 30 Oeste 0 961.3 -1.4 88
2020-03-26 05:00:00 5.2 17 Oeste 28 Noroeste 0 961.5 -1.8 88
2020-03-26 04:00:00 5.2 16 Oeste 28 Oeste 0 962.2 -1.4 88
2020-03-26 03:00:00 5.5 16 Oeste 30 Oeste 0 962.7 -1.4 80
2020-03-26 02:00:00 5.4 15 Oeste 28 Oeste 0 963.3 -1.2 80
2020-03-26 01:00:00 5.2 17 Oeste 29 Oeste 0 963.6 -1.1 81
2020-03-26 00:00:00 5.2 12 Oeste 23 Oeste 0 964.1 -0.6 77
2020-03-25 23:00:00 5 12 Oeste 21 Oeste 0 964.5 0.7 75
2020-03-25 22:00:00 4.9 7 Oeste 19 Oeste 0 964.7 1.1 70
2020-03-25 21:00:00 5.5 12 Noroeste 25 Oeste 0 964.7 1.5 62
2020-03-25 20:00:00 6.5 12 Oeste 26 Noroeste 0 963.8 0.9 52
2020-03-25 19:00:00 8.6 17 Oeste 36 Oeste 0 963.6 0.5 40
2020-03-25 18:00:00 10.2 19 Oeste 40 Oeste 0 963.2 0 45
2020-03-25 17:00:00 11.7 20 Oeste 38 Noroeste 0 962.9 -0.9 43
2020-03-25 16:00:00 13.1 19 Oeste 37 Oeste 0 963.1 -0.8 43
2020-03-25 15:00:00 13.9 16 Noroeste 31 Noroeste 0 963.2 -1.1 44
2020-03-25 14:00:00 13.9 15 Oeste 37 Oeste 0 963.8 -0.6 46
2020-03-25 13:00:00 13.7 16 Oeste 33 Oeste 0 963.9 -0.9 47
2020-03-25 12:00:00 13.3 13 Oeste 29 Oeste 0 964.3 -0.6 46
2020-03-25 11:00:00 12.2 13 Oeste 19 Oeste 0 964.4 -0.7 57
2020-03-25 10:00:00 10.2 4 Este 9 Este 0 964.8 0 74
2020-03-25 09:00:00 7.9 0 Calma 2 Sur 0 964.9 0.1 91
2020-03-25 08:00:00 5.1 0 Calma 5 Sudoeste 0 965.1 0.1 99
2020-03-25 07:00:00 4.4 0 Calma 5 Sudoeste 0 964.8 -0.3 99
2020-03-25 06:00:00 4.7 0 Calma 5 Sudoeste 0 964.8 -0.8 99
2020-03-25 05:00:00 4.8 0 Calma 0 Calma 0 965 -0.8 99
2020-03-25 04:00:00 4.5 0 Calma 0 Calma 0 965.1 -0.7 97
2020-03-25 03:00:00 5 0 Calma 7 Sudoeste 0 965.6 -0.6 97
2020-03-25 02:00:00 5.2 0 Calma 9 Sudoeste 0 965.8 -0.8 97
2020-03-25 01:00:00 5.6 2 Sudoeste 9 Sudoeste 0 965.8 -0.9 96
2020-03-25 00:00:00 6.3 2 Sudoeste 10 Sudoeste 0 966.2 -0.5 93
2020-03-24 23:00:00 6.7 0 Calma 8 Sudoeste 0 966.6 0.4 88
2020-03-24 22:00:00 8.7 0 Calma 8 Oeste 0 966.7 0.7 80
2020-03-24 21:00:00 9.8 2 Oeste 13 Oeste 0 966.7 0.6 73
2020-03-24 20:00:00 10.6 0 Calma 14 Norte 0 966.2 0.2 63
2020-03-24 19:00:00 12.5 5 Norte 16 Noroeste 0 966 0 52
2020-03-24 18:00:00 13.7 6 Norte 22 Norte 0 966.1 -0.4 49
2020-03-24 17:00:00 14.5 12 Norte 24 Norte 0 966 -1.3 52
2020-03-24 16:00:00 15.3 8 Norte 25 Noroeste 0 966 -1.7 52
2020-03-24 15:00:00 15.8 6 Norte 18 Nordeste 0 966.5 -2.1 52
2020-03-24 14:00:00 14.7 2 Noroeste 14 Noroeste 0 967.3 -1.6 52
2020-03-24 13:00:00 14.6 3 Este 14 Sudeste 0 967.7 -1.3 52
2020-03-24 12:00:00 14.6 3 Sudeste 14 Sudeste 0 968.6 -0.5 55
2020-03-24 11:00:00 13.4 6 Este 14 Este 0 968.9 0 64
2020-03-24 10:00:00 11.7 3 Este 8 Este 0 969 0.6 82
2020-03-24 09:00:00 8.5 0 Calma 0 Calma 0 969.1 0.8 99
2020-03-24 08:00:00 6.9 0 Calma 2 Este 0 968.9 0.7 99
2020-03-24 07:00:00 7 0 Calma 0 Calma 0 968.4 0.2 99
2020-03-24 06:00:00 6.3 0 Calma 0 Calma 0 968.3 -0.1 99
2020-03-24 05:00:00 5.9 0 Calma 0 Calma 0 968.2 -0.4 99
2020-03-24 04:00:00 6.1 0 Calma 0 Calma 0 968.2 -0.5 99
2020-03-24 03:00:00 6.2 0 Calma 3 Sudoeste 0 968.4 -0.6 99
2020-03-24 02:00:00 7.6 0 Calma 3 Oeste 0 968.6 -0.4 99
2020-03-24 01:00:00 8.2 0 Calma 6 Este 0 968.7 -0.1 99
2020-03-24 00:00:00 8.6 0 Calma 8 Sudeste 0 969 0.5 99
2020-03-23 23:00:00 8.7 0 Calma 4 Sudeste 0 969 0.9 99
2020-03-23 22:00:00 8.9 0 Calma 0 Calma 0 968.8 1.2 99
2020-03-23 21:00:00 9.4 0 Calma 0 Calma 0.4 968.5 1.3 99
2020-03-23 20:00:00 9.8 0 Calma 10 Norte 0.7 968.1 1.2 92
2020-03-23 19:00:00 10.1 5 Norte 16 Norte 0 967.6 1.1 88
2020-03-23 18:00:00 10.9 5 Norte 17 Noroeste 0 967.2 0.4 82
2020-03-23 17:00:00 11.5 5 Norte 16 Norte 0 966.9 -0.6 79
2020-03-23 16:00:00 12.8 4 Nordeste 14 Noroeste 0 966.5 -1.7 70
2020-03-23 15:00:00 13.1 5 Norte 14 Noroeste 0 966.8 -1.9 67
2020-03-23 14:00:00 12.2 2 Nordeste 11 Nordeste 0 967.5 -1.1 71
2020-03-23 13:00:00 11.5 2 Noroeste 14 Noroeste 0 968.2 -0.3 79
2020-03-23 12:00:00 10.1 2 Norte 8 Norte 0 968.7 0.6 85
2020-03-23 11:00:00 9.7 0 Calma 2 Nordeste 0 968.6 1 88
2020-03-23 10:00:00 8.9 0 Calma 4 Este 0 968.5 1.6 92
2020-03-23 09:00:00 8.3 0 Calma 4 Oeste 0 968.1 1.5 97
2020-03-23 08:00:00 7.7 0 Calma 0 Calma 0 967.6 1.2 97
2020-03-23 07:00:00 7.6 0 Calma 2 Noroeste 0 966.9 0.5 97
2020-03-23 06:00:00 7.9 0 Calma 0 Calma 0 966.6 0.4 96
2020-03-23 05:00:00 7.9 0 Calma 6 Sudeste 0 966.4 0.3 96
2020-03-23 04:00:00 8.1 0 Calma 12 Oeste 0 966.4 0.2 95
2020-03-23 03:00:00 8 4 Oeste 12 Oeste 0 966.2 0.2 96
2020-03-23 02:00:00 7.9 3 Oeste 9 Oeste 0 966.1 0.1 97
2020-03-23 01:00:00 7.7 3 Oeste 11 Oeste 0 966.2 0.7 96
2020-03-23 00:00:00 8 0 Calma 14 Oeste 0 966 0.9 96
2020-03-22 23:00:00 8.2 4 Oeste 10 Oeste 0 966 1.4 95
2020-03-22 22:00:00 7.9 0 Calma 8 Oeste 0 965.5 1.5 91
2020-03-22 21:00:00 9.3 0 Calma 3 Este 0 965.1 1.8 85
2020-03-22 20:00:00 10.1 2 Este 10 Nordeste 0 964.6 1.8 81
2020-03-22 19:00:00 9.9 4 Norte 15 Nordeste 0 964 1.6 82
2020-03-22 18:00:00 10.4 6 Nordeste 24 Nordeste 0 963.3 1 81
2020-03-22 17:00:00 11.6 9 Norte 24 Norte 0 962.8 0.4 74
2020-03-22 16:00:00 13.6 7 Norte 22 Noroeste 0 962.4 -0.3 66
2020-03-22 15:00:00 15.1 10 Norte 19 Noroeste 0 962.3 -0.5 57
2020-03-22 14:00:00 14 5 Nordeste 20 Noroeste 0 962.4 -0.7 58
2020-03-22 13:00:00 14.1 7 Noroeste 17 Noroeste 0 962.7 -0.4 57
2020-03-22 12:00:00 14.6 0 Calma 9 Nordeste 0 962.8 0.2 54
2020-03-22 11:00:00 12 3 Este 8 Este 0 963.1 0.8 64
2020-03-22 10:00:00 9.5 0 Calma 6 Norte 0 963.1 1.5 75
2020-03-22 09:00:00 6.2 0 Calma 0 Calma 0 962.6 1.3 91
2020-03-22 08:00:00 5 0 Calma 2 Sudoeste 0 962.3 1.3 89
2020-03-22 07:00:00 4.9 0 Calma 5 Sudoeste 0 961.6 0.4 84
2020-03-22 06:00:00 6.6 0 Calma 6 Sudoeste 0 961.3 0 75
2020-03-22 05:00:00 7.3 0 Calma 2 Sudoeste 0 961 -0.3 73
2020-03-22 04:00:00 7.2 0 Calma 4 Este 0 961.2 -0.4 74
2020-03-22 03:00:00 8.1 0 Calma 3 Sudoeste 0 961.3 -0.1 71
2020-03-22 02:00:00 7.9 0 Calma 0 Calma 0 961.3 -0.1 69
2020-03-22 01:00:00 8.2 0 Calma 4 Este 0 961.6 0.5 65
2020-03-22 00:00:00 8 0 Calma 0 Calma 0 961.4 0.5 65
2020-03-21 23:00:00 8.2 0 Calma 0 Calma 0 961.4 1.1 63
2020-03-21 22:00:00 9 0 Calma 8 Este 0 961.1 1.4 60
2020-03-21 21:00:00 10.1 0 Calma 15 Sudeste 0 960.9 1.4 58
2020-03-21 20:00:00 11.2 0 Calma 15 Sudeste 0 960.3 0.8 54
2020-03-21 19:00:00 13.2 6 Sudeste 17 Este 0 959.7 0.2 46
2020-03-21 18:00:00 14.1 7 Sudeste 17 Sudeste 0 959.5 -0.4 45
2020-03-21 17:00:00 15.2 4 Sudeste 23 Este 0 959.5 -1 42
2020-03-21 16:00:00 15.5 7 Sudeste 21 Este 0 959.5 -1.5 42
2020-03-21 15:00:00 15.6 7 Sudeste 22 Sudeste 0 959.9 -1.8 44
2020-03-21 14:00:00 15.2 7 Sudeste 24 Sudeste 0 960.5 -1.5 43
2020-03-21 13:00:00 14.5 7 Sudeste 24 Este 0 961 -1.3 46
2020-03-21 12:00:00 13.8 9 Sudeste 26 Sur 0 961.7 -0.8 48
2020-03-21 11:00:00 12.8 10 Sudeste 26 Este 0 962 -0.7 51
2020-03-21 10:00:00 11.2 9 Este 21 Sudeste 0 962.3 -0.2 58
2020-03-21 09:00:00 9.4 4 Este 13 Sudeste 0 962.5 0 65
2020-03-21 08:00:00 8.1 0 Calma 15 Sudeste 0 962.7 0 66
2020-03-21 07:00:00 8 3 Sudeste 14 Sudeste 0 962.5 -0.5 66
2020-03-21 06:00:00 8.1 3 Sudeste 13 Sudeste 0 962.5 -0.7 69
2020-03-21 05:00:00 8.8 0 Calma 28 Este 0 962.7 -0.6 69
2020-03-21 04:00:00 9.5 7 Este 27 Sudeste 0 963 -0.9 67
2020-03-21 03:00:00 9.9 8 Sudeste 30 Sudeste 0 963.2 -1.2 66
2020-03-21 02:00:00 10.7 10 Sudeste 31 Sudeste 0 963.3 -1 64
2020-03-21 01:00:00 10.6 4 Sudeste 29 Este 0 963.9 -0.5 65
2020-03-21 00:00:00 10.7 5 Sudeste 24 Sudeste 0 964.4 -0.2 66
2020-03-20 23:00:00 10.3 2 Sudeste 17 Sudeste 0 964.3 -0.2 68
2020-03-20 22:00:00 10.4 0 Calma 9 Sudeste 0 964.4 0 67
2020-03-20 21:00:00 10.3 0 Calma 10 Sur 0 964.6 0.5 67
2020-03-20 20:00:00 10.9 0 Calma 7 Sudeste 0 964.5 0.2 63
2020-03-20 19:00:00 11.9 0 Calma 17 Sur 0 964.4 -0.1 59
2020-03-20 18:00:00 13.1 2 Sudeste 27 Este 0 964.1 -1 54
2020-03-20 17:00:00 13.6 8 Este 26 Sudeste 0 964.3 -0.8 51
2020-03-20 16:00:00 13.8 12 Este 32 Sudeste 0 964.5 -1.1 49
2020-03-20 15:00:00 13.9 12 Sudeste 34 Sudeste 0 965.1 -0.9 47
2020-03-20 14:00:00 14.5 8 Sudeste 36 Este 0 965.1 -1 49
2020-03-20 13:00:00 13.7 8 Este 36 Este 0 965.6 -0.5 49
2020-03-20 12:00:00 13.3 10 Sudeste 35 Este 0 966 0 46
2020-03-20 11:00:00 13.2 12 Este 48 Este 0 966.1 0.3 46
2020-03-20 10:00:00 12.2 11 Sudeste 24 Sur 0 966.1 0.4 47
2020-03-20 09:00:00 10.7 7 Sudeste 28 Este 0 966 0.3 50
2020-03-20 08:00:00 9.7 0 Calma 20 Sudeste 0 965.8 0 53
2020-03-20 07:00:00 9.4 4 Sudeste 18 Sudeste 0 965.7 -0.1 55
2020-03-20 06:00:00 9.7 4 Sudeste 30 Este 0 965.7 -0.4 56
2020-03-20 05:00:00 9.5 0 Calma 20 Sudeste 0 965.8 -0.6 56
2020-03-20 04:00:00 10 6 Sudeste 19 Sudeste 0 965.8 -0.8 57
2020-03-20 03:00:00 9.8 0 Calma 18 Sudeste 0 966.1 -0.8 62
2020-03-20 02:00:00 10.5 2 Sur 24 Sudeste 0 966.4 -0.6 62
2020-03-20 01:00:00 11.3 8 Sudeste 25 Sudeste 0 966.6 -0.4 64
2020-03-20 00:00:00 10.9 0 Calma 9 Sudeste 0 966.9 0 67
2020-03-19 23:00:00 11 0 Calma 7 Sudeste 0 967 -0.1 67
2020-03-19 22:00:00 12 0 Calma 11 Este 0 967 0.1 59
2020-03-19 21:00:00 12.3 0 Calma 11 Sudeste 0 966.9 0 47
2020-03-19 20:00:00 13.2 2 Sudeste 22 Sudeste 0 967.1 0.1 44
2020-03-19 19:00:00 14.8 4 Sudeste 13 Sur 0 966.9 -0.6 41
2020-03-19 18:00:00 15.7 0 Calma 13 Sudeste 0 966.9 -1.1 43
2020-03-19 17:00:00 16.5 2 Sudeste 17 Este 0 967 -1.6 44
2020-03-19 16:00:00 17 4 Sudeste 23 Sudeste 0 967.5 -1.8 41
2020-03-19 15:00:00 17.3 7 Sudeste 32 Sudeste 0 968 -1.9 43
2020-03-19 14:00:00 17.5 14 Este 32 Sudeste 0 968.6 -1.8 43
2020-03-19 13:00:00 16.9 10 Sudeste 32 Sudeste 0 969.3 -1.3 46
2020-03-19 12:00:00 16.3 13 Sudeste 33 Sudeste 0 969.9 -0.5 46
2020-03-19 11:00:00 15.7 7 Sudeste 26 Sudeste 0 970.4 0.2 49
2020-03-19 10:00:00 13.6 8 Sudeste 18 Este 0 970.6 0.3 58
2020-03-19 09:00:00 12.2 6 Este 16 Este 0 970.4 0.2 65
2020-03-19 08:00:00 10 0 Calma 14 Sudeste 0 970.2 -0.1 76
2020-03-19 07:00:00 9.7 0 Calma 3 Nordeste 0 970.3 -0.6 80
2020-03-19 06:00:00 9.7 0 Calma 2 Nordeste 0 970.2 -1.1 83
2020-03-19 05:00:00 10 0 Calma 5 Sudeste 0 970.3 -1.7 86
2020-03-19 04:00:00 9.7 0 Calma 6 Este 0 970.9 -1.3 87
2020-03-19 03:00:00 9.4 0 Calma 3 Sudeste 0 971.3 -1.3 85
2020-03-19 02:00:00 9.9 0 Calma 0 Calma 0 972 -0.9 79
2020-03-19 01:00:00 10.3 0 Calma 0 Calma 0 972.2 -0.9 77
2020-03-19 00:00:00 10.6 0 Calma 0 Calma 0 972.6 -0.4 76
2020-03-18 23:00:00 11 0 Calma 0 Calma 0 972.9 -0.1 73
2020-03-18 22:00:00 11.5 0 Calma 0 Calma 0 973.1 0.3 73
2020-03-18 21:00:00 12.4 0 Calma 0 Calma 0 973 0.4 70
2020-03-18 20:00:00 13.2 0 Calma 0 Calma 0 973 0.3 64
2020-03-18 19:00:00 14.6 0 Calma 5 Sur 0 972.8 -0.3 64
2020-03-18 18:00:00 15.8 0 Calma 8 Sudeste 0 972.6 -1 65
2020-03-18 17:00:00 17.4 2 Este 12 Este 0 972.7 -1.5 51
2020-03-18 16:00:00 17.6 4 Sudeste 10 Sudeste 0 973.1 -2.1 55
2020-03-18 15:00:00 16.7 3 Sudeste 10 Este 0 973.6 -2.3 58
2020-03-18 14:00:00 15.8 4 Este 10 Nordeste 0 974.2 -2.1 60
2020-03-18 13:00:00 14.9 2 Este 11 Este 0 975.2 -1.5 67
2020-03-18 12:00:00 13.2 3 Nordeste 8 Nordeste 0 975.9 -0.6 76
2020-03-18 11:00:00 11.8 0 Calma 5 Nordeste 0 976.3 -0.1 86
2020-03-18 10:00:00 9.7 0 Calma 0 Calma 0 976.7 0.3 99
2020-03-18 09:00:00 7.8 0 Calma 0 Calma 0 976.5 0.2 99
2020-03-18 08:00:00 7.1 0 Calma 0 Calma 0 976.4 0 99
2020-03-18 07:00:00 6.5 0 Calma 2 Este 0 976.4 -0.4 99
2020-03-18 06:00:00 7 0 Calma 0 Calma 0 976.3 -1 99
2020-03-18 05:00:00 6.5 0 Calma 3 Noroeste 0 976.4 -1.4 99
2020-03-18 04:00:00 7.2 0 Calma 2 Sudeste 0 976.8 -1.1 99
2020-03-18 03:00:00 7.9 0 Calma 0 Calma 0 977.3 -1.1 99
2020-03-18 02:00:00 8 0 Calma 6 Sudeste 0 977.8 -1 99
2020-03-18 01:00:00 8.2 3 Sudeste 8 Sudeste 0 977.9 -1 99
2020-03-18 00:00:00 8.6 0 Calma 8 Este 0 978.4 -0.4 99
2020-03-17 23:00:00 8.8 0 Calma 2 Este 0 978.8 0.7 99
2020-03-17 22:00:00 8.9 0 Calma 0 Calma 0 978.9 0.8 99
2020-03-17 21:00:00 9.1 0 Calma 2 Sudeste 0 978.8 0.8 99
2020-03-17 20:00:00 9 0 Calma 4 Sudeste 0 978.1 0.3 98
2020-03-17 19:00:00 9.5 0 Calma 4 Este 0 978.1 0.5 97
2020-03-17 18:00:00 9.5 0 Calma 8 Este 0 978 -0.1 96
2020-03-17 17:00:00 9.6 2 Sudeste 6 Este 0 977.8 -0.4 95
2020-03-17 16:00:00 9.5 0 Calma 3 Este 0 977.6 -0.7 96
2020-03-17 15:00:00 9.1 0 Calma 7 Nordeste 0 978.1 -0.3 97
2020-03-17 14:00:00 8.9 0 Calma 7 Sudeste 0 978.2 0 97
2020-03-17 13:00:00 8.7 0 Calma 4 Este 0 978.3 0.6 97
2020-03-17 12:00:00 8.6 0 Calma 10 Norte 0 978.4 1.1 99
2020-03-17 11:00:00 8.3 0 Calma 6 Noroeste 0 978.2 1.4 99
2020-03-17 10:00:00 7.6 0 Calma 4 Noroeste 0 977.7 1.2 99
2020-03-17 09:00:00 7.3 0 Calma 6 Oeste 0 977.3 1.5 99
2020-03-17 08:00:00 7.1 0 Calma 8 Este 0.1 976.8 1.8 99
2020-03-17 07:00:00 7 0 Calma 9 Este 0.3 976.5 1.8 99
2020-03-17 06:00:00 7 0 Calma 5 Oeste 0.4 975.8 1 99
2020-03-17 05:00:00 6.9 0 Calma 5 Sudoeste 0.5 975 0.2 99
2020-03-17 04:00:00 6.8 0 Calma 6 Sudoeste 0.2 974.7 0.1 99
2020-03-17 03:00:00 6.9 0 Calma 7 Oeste 0.4 974.8 0.1 99
2020-03-17 02:00:00 6.8 0 Calma 6 Oeste 0.6 974.8 0.7 99
2020-03-17 01:00:00 6.8 0 Calma 8 Sudoeste 0.3 974.6 1.2 99
2020-03-17 00:00:00 6.8 0 Calma 11 Noroeste 0.4 974.7 2.3 99
2020-03-16 23:00:00 6.7 4 Oeste 16 Noroeste 0.7 974.1 2.3 99
2020-03-16 22:00:00 6.6 0 Calma 8 Oeste 1.1 973.4 2.6 99
2020-03-16 21:00:00 6.6 0 Calma 7 Noroeste 0.8 972.4 2.2 99
2020-03-16 20:00:00 6.6 0 Calma 8 Este 0.3 971.8 2.1 99
2020-03-16 19:00:00 6.5 0 Calma 9 Oeste 0.3 970.8 1.3 99
2020-03-16 18:00:00 6.7 0 Calma 17 Oeste 0.2 970.2 1.2 97
2020-03-16 17:00:00 6.7 7 Oeste 18 Oeste 0.6 969.7 1.1 96
2020-03-16 16:00:00 7 5 Nordeste 21 Nordeste 0.2 969.5 1.2 94
2020-03-16 15:00:00 7.1 4 Nordeste 14 Nordeste 1.5 969 1.6 98
2020-03-16 14:00:00 6.9 4 Noroeste 17 Nordeste 2.6 968.6 1.9 97
2020-03-16 13:00:00 6.8 3 Nordeste 17 Norte 2.1 968.3 2.4 96
2020-03-16 12:00:00 6.7 3 Norte 22 Norte 2.7 967.4 2.1 99
2020-03-16 11:00:00 5.9 12 Noroeste 27 Noroeste 3.9 966.7 2.3 99
2020-03-16 10:00:00 4.5 9 Oeste 29 Oeste 5.4 965.9 1.8 99
2020-03-16 09:00:00 4.1 15 Oeste 28 Oeste 4 965.3 1.6 99
2020-03-16 08:00:00 3.7 14 Oeste 30 Oeste 3 964.4 1 99
2020-03-16 07:00:00 3.6 12 Oeste 23 Oeste 3.3 964.1 1.2 99
2020-03-16 06:00:00 3.7 11 Oeste 24 Oeste 2 963.7 0.5 99
2020-03-16 05:00:00 4.1 14 Oeste 22 Oeste 1.8 963.4 0.5 99
2020-03-16 04:00:00 4.3 8 Oeste 22 Oeste 4.3 962.9 -0.3 99
2020-03-16 03:00:00 4.5 10 Oeste 24 Oeste 2.4 963.2 -0.6 99
2020-03-16 02:00:00 4.9 5 Oeste 23 Oeste 2.7 962.9 -0.3 99
2020-03-16 01:00:00 5 8 Oeste 21 Oeste 3.2 963.2 0.6 99
2020-03-16 00:00:00 5 8 Oeste 28 Oeste 4.2 963.8 1.7 99
2020-03-15 23:00:00 5.3 13 Oeste 28 Oeste 0.7 963.2 0.8 99
2020-03-15 22:00:00 6.7 0 Calma 11 Oeste 0.4 962.6 0.6 99
2020-03-15 21:00:00 6.8 0 Calma 21 Oeste 3.1 962.1 1 99
2020-03-15 20:00:00 7 3 Oeste 17 Noroeste 4.9 962.4 1.2 98
2020-03-15 19:00:00 8.9 6 Noroeste 24 Noroeste 0 962 1.6 78
2020-03-15 18:00:00 9.1 9 Noroeste 23 Norte 0 961.1 1.2 85
2020-03-15 17:00:00 11.1 14 Norte 28 Noroeste 0 961.2 0 81
2020-03-15 16:00:00 13.9 10 Norte 25 Noroeste 0 960.4 -1.6 62
2020-03-15 15:00:00 18.3 8 Este 26 Este 0 959.9 -2.7 40
2020-03-15 14:00:00 17.7 9 Sudeste 26 Sudeste 0 961.2 -1.8 38
2020-03-15 13:00:00 16.9 14 Sudeste 30 Sudeste 0 962 -1.7 38
2020-03-15 12:00:00 16.2 10 Sudeste 31 Sudeste 0 962.6 -1.3 39
2020-03-15 11:00:00 14.3 15 Este 32 Sudeste 0 963 -0.9 45
2020-03-15 10:00:00 12.9 13 Sudeste 32 Sudeste 0 963.7 -0.4 49
2020-03-15 09:00:00 10.3 7 Este 28 Sudeste 0 963.9 -0.4 58
2020-03-15 08:00:00 5.3 2 Norte 18 Este 0 963.9 -0.6 69
2020-03-15 07:00:00 4.9 0 Calma 10 Noroeste 0 964.1 -1.1 67
2020-03-15 06:00:00 4.7 0 Calma 5 Este 0 964.3 -1.9 69
2020-03-15 05:00:00 3.9 0 Calma 3 Sudoeste 0 964.5 -2.6 80
2020-03-15 04:00:00 2.9 0 Calma 0 Calma 0 965.2 -2.7 99
2020-03-15 03:00:00 2.6 0 Calma 0 Calma 0 966.2 -2.5 99
2020-03-15 02:00:00 3.2 0 Calma 0 Calma 0 967.1 -2.3 99
2020-03-15 01:00:00 3.4 0 Calma 0 Calma 0 967.9 -1.8 97
2020-03-15 00:00:00 3.4 0 Calma 0 Calma 0 968.7 -1.3 95
2020-03-14 23:00:00 4 0 Calma 0 Calma 0 969.4 -0.6 93
2020-03-14 22:00:00 4.6 0 Calma 0 Calma 0 969.7 -0.4 91
2020-03-14 21:00:00 5.7 0 Calma 4 Oeste 0 970 0.1 87
2020-03-14 20:00:00 6.8 0 Calma 7 Norte 0 970 -0.3 79
2020-03-14 19:00:00 9.1 2 Norte 12 Noroeste 0 970.1 -0.5 63
2020-03-14 18:00:00 10.6 7 Noroeste 18 Norte 0 969.9 -1.3 56
2020-03-14 17:00:00 11.4 4 Norte 17 Norte 0 970.3 -1.8 53
2020-03-14 16:00:00 12.4 6 Norte 14 Norte 0 970.6 -2.2 50
2020-03-14 15:00:00 12.8 5 Noroeste 17 Noroeste 0 971.2 -1.9 50
2020-03-14 14:00:00 11.3 5 Noroeste 14 Noroeste 0 972.1 -1.2 52
2020-03-14 13:00:00 11.2 0 Calma 17 Oeste 0 972.8 -0.5 53
2020-03-14 12:00:00 9.8 10 Oeste 22 Noroeste 0 973.1 0.1 54
2020-03-14 11:00:00 8.5 12 Oeste 21 Noroeste 0 973.3 0.7 54
2020-03-14 10:00:00 6.4 0 Calma 4 Oeste 0 973.3 1 82
2020-03-14 09:00:00 2.7 0 Calma 5 Sudoeste 0 973 1.3 99
2020-03-14 08:00:00 0.5 3 Sudoeste 11 Sudoeste 0 972.6 0.9 99
2020-03-14 07:00:00 0.1 0 Calma 10 Oeste 0 972.3 0.7 99
2020-03-14 06:00:00 0.5 4 Sudoeste 10 Sudoeste 0 971.7 -0.6 99
2020-03-14 05:00:00 0.7 3 Oeste 10 Sudoeste 0 971.7 -0.8 99
2020-03-14 04:00:00 1.3 2 Sudoeste 10 Sudoeste 0 971.6 -0.9 99
2020-03-14 03:00:00 1.7 3 Sudoeste 9 Sudoeste 0 972.3 -0.6 99
2020-03-14 02:00:00 2.3 2 Sudoeste 9 Sudoeste 0 972.5 -0.1 99
2020-03-14 01:00:00 2.7 3 Oeste 7 Oeste 0 972.5 -0.1 98
2020-03-14 00:00:00 3.4 2 Oeste 6 Noroeste 0 972.9 1 96
2020-03-13 23:00:00 4.3 0 Calma 3 Oeste 0 972.6 0.9 91
2020-03-13 22:00:00 5 0 Calma 9 Noroeste 0 972.6 0.9 88
2020-03-13 21:00:00 5.5 2 Norte 10 Norte 0 971.9 0.4 84
2020-03-13 20:00:00 6.5 0 Calma 13 Noroeste 0 971.7 -0.1 78
2020-03-13 19:00:00 7.1 3 Norte 15 Noroeste 0 971.7 -0.3 73
2020-03-13 18:00:00 7.9 6 Norte 16 Noroeste 0 971.5 -0.7 67
2020-03-13 17:00:00 8.7 5 Norte 18 Noroeste 0 971.8 -0.9 63
2020-03-13 16:00:00 9.3 5 Norte 17 Noroeste 0 972 -1.1 62
2020-03-13 15:00:00 9.1 8 Nordeste 20 Norte 0 972.2 -1.1 61
2020-03-13 14:00:00 9.1 6 Norte 18 Norte 0 972.7 -0.7 65
2020-03-13 13:00:00 8.2 6 Nordeste 15 Norte 0 973.1 -0.4 72
2020-03-13 12:00:00 7.9 3 Norte 15 Noroeste 0 973.3 -0.2 82
2020-03-13 11:00:00 7.1 4 Norte 14 Noroeste 0 973.4 0.3 91
2020-03-13 10:00:00 6.7 0 Calma 9 Noroeste 0 973.5 0.1 97
2020-03-13 09:00:00 6.2 0 Calma 10 Noroeste 0.1 973.5 0.4 99
2020-03-13 08:00:00 6.1 0 Calma 6 Noroeste 0.2 973.1 0 99
2020-03-13 07:00:00 6.1 0 Calma 6 Este 0.5 973.4 0.3 99
2020-03-13 06:00:00 6.3 0 Calma 8 Noroeste 0.1 973.1 -0.3 99
2020-03-13 05:00:00 6.2 0 Calma 9 Este 0.6 973.1 -0.6 99
2020-03-13 04:00:00 6.6 0 Calma 7 Norte 0 973.1 -0.6 99
2020-03-13 03:00:00 6.8 2 Norte 19 Nordeste 0 973.4 -0.4 97
2020-03-13 02:00:00 7.1 6 Norte 18 Este 0.1 973.7 0.1 98
2020-03-13 01:00:00 7.5 6 Noroeste 17 Norte 0.1 973.7 0.3 98
2020-03-13 00:00:00 7.6 4 Norte 20 Norte 0 973.8 1.1 97
2020-03-12 23:00:00 7.8 3 Noroeste 15 Noroeste 0.2 973.6 1 97
2020-03-12 22:00:00 8.2 5 Noroeste 17 Noroeste 0.1 973.4 1.4 97
2020-03-12 21:00:00 8.8 8 Noroeste 16 Oeste 0 972.7 1.2 97
2020-03-12 20:00:00 9.2 4 Norte 11 Noroeste 0 972.6 1 94
2020-03-12 19:00:00 9.6 0 Calma 12 Nordeste 0 972 0.2 85
2020-03-12 18:00:00 9.7 4 Norte 17 Noroeste 0 971.5 -0.3 85
2020-03-12 17:00:00 10.2 2 Norte 15 Norte 0 971.6 -0.6 84
2020-03-12 16:00:00 10.4 7 Norte 19 Noroeste 0 971.8 -1 89
2020-03-12 15:00:00 10.4 6 Norte 16 Noroeste 0 971.8 -1 89
2020-03-12 14:00:00 10.5 4 Nordeste 17 Nordeste 0 972.2 -0.7 91
2020-03-12 13:00:00 10.7 6 Noroeste 12 Noroeste 0 972.8 -0.1 93
2020-03-12 12:00:00 9.9 3 Norte 9 Norte 0 972.8 0.1 99
2020-03-12 11:00:00 9.6 0 Calma 2 Noroeste 0 972.9 0.4 99
2020-03-12 10:00:00 9.2 0 Calma 0 Calma 0 972.9 1 99
2020-03-12 09:00:00 8.4 0 Calma 4 Noroeste 0 972.7 0.8 99
2020-03-12 08:00:00 8 0 Calma 10 Oeste 0 972.5 0.9 99
2020-03-12 07:00:00 7.9 0 Calma 11 Oeste 0 971.9 0.7 99
2020-03-12 06:00:00 7.8 3 Oeste 15 Oeste 0 971.9 0.6 99
2020-03-12 05:00:00 7.8 9 Oeste 18 Oeste 0 971.6 0.1 99
2020-03-12 04:00:00 8.3 9 Oeste 17 Oeste 0 971.2 -0.5 99
2020-03-12 03:00:00 8.5 0 Calma 5 Oeste 0 971.3 -0.6 99
2020-03-12 02:00:00 8.8 0 Calma 0 Calma 0 971.5 -0.2 99
2020-03-12 01:00:00 9.2 0 Calma 5 Sudoeste 0 971.7 0.1 99
2020-03-12 00:00:00 9.5 0 Calma 10 Oeste 0 971.9 0.7 97
2020-03-11 23:00:00 10.1 0 Calma 13 Oeste 0 971.7 0.8 95
2020-03-11 22:00:00 11.2 7 Oeste 19 Oeste 0 971.6 1.1 91
2020-03-11 21:00:00 12.2 5 Oeste 13 Noroeste 0 971.2 1.1 88
2020-03-11 20:00:00 13.2 0 Calma 11 Norte 0 970.9 1 82
2020-03-11 19:00:00 15 0 Calma 9 Norte 0 970.5 0.4 73
2020-03-11 18:00:00 17.9 3 Norte 13 Norte 0 970.1 -0.6 57
2020-03-11 17:00:00 19.5 4 Norte 11 Norte 0 969.9 -1.8 46
2020-03-11 16:00:00 20.4 4 Sudeste 10 Este 0 970.1 -2.5 40
2020-03-11 15:00:00 20.6 3 Sudeste 10 Este 0 970.7 -2.8 40
2020-03-11 14:00:00 19.4 2 Sudeste 10 Este 0 971.7 -2.3 46
2020-03-11 13:00:00 17.2 5 Este 11 Este 0 972.6 -1.6 54
2020-03-11 12:00:00 15.4 4 Este 9 Este 0 973.5 -0.7 64
2020-03-11 11:00:00 12.4 5 Este 8 Este 0 974 -0.3 79
2020-03-11 10:00:00 10.3 0 Calma 4 Este 0 974.2 -0.1 88
2020-03-11 09:00:00 7.3 0 Calma 0 Calma 0 974.2 -0.1 99
2020-03-11 08:00:00 4.7 0 Calma 3 Sudoeste 0 974.3 0.1 99
2020-03-11 07:00:00 4.5 0 Calma 6 Sudoeste 0 974.3 -0.3 99
2020-03-11 06:00:00 4.8 0 Calma 0 Calma 0 974.3 -0.6 99
2020-03-11 05:00:00 4.4 0 Calma 0 Calma 0 974.2 -1.4 99
2020-03-11 04:00:00 4.5 0 Calma 0 Calma 0 974.6 -1.3 99
2020-03-11 03:00:00 4.9 0 Calma 0 Calma 0 974.9 -1.3 99
2020-03-11 02:00:00 5.3 0 Calma 5 Sudoeste 0 975.6 -0.5 99
2020-03-11 01:00:00 5.5 0 Calma 4 Sudoeste 0 975.9 0.1 99
2020-03-11 00:00:00 5.9 0 Calma 4 Sudoeste 0 976.2 0.6 99
2020-03-10 23:00:00 6.6 0 Calma 0 Calma 0 976.1 0.8 99
2020-03-10 22:00:00 6.9 0 Calma 6 Sudoeste 0 975.8 0.6 99
2020-03-10 21:00:00 7.8 0 Calma 0 Calma 0 975.6 0.7 96
2020-03-10 20:00:00 8.8 0 Calma 5 Oeste 0 975.3 0.8 91
2020-03-10 19:00:00 10.4 0 Calma 15 Oeste 0 975.2 1.2 82
2020-03-10 18:00:00 11.8 6 Norte 19 Norte 0 974.9 0.7 75
2020-03-10 17:00:00 13.4 7 Norte 18 Noroeste 0 974.5 -0.1 67
2020-03-10 16:00:00 15.1 8 Noroeste 16 Noroeste 0 974 -0.9 55
2020-03-10 15:00:00 15.4 6 Oeste 18 Oeste 0 974.2 -1.2 55
2020-03-10 14:00:00 14.7 7 Oeste 14 Oeste 0 974.6 -0.7 52
2020-03-10 13:00:00 14.4 0 Calma 6 Este 0 974.9 -0.5 56
2020-03-10 12:00:00 11.8 0 Calma 4 Noroeste 0 975.4 0 66
2020-03-10 11:00:00 8.9 0 Calma 3 Este 0 975.3 0.2 97
2020-03-10 10:00:00 6 0 Calma 0 Calma 0 975.4 0.4 99
2020-03-10 09:00:00 4.4 0 Calma 0 Calma 0 975.4 0.4 99
2020-03-10 08:00:00 3.3 0 Calma 0 Calma 0 975.1 -0.2 99
2020-03-10 07:00:00 3 0 Calma 0 Calma 0 975 -0.4 99
2020-03-10 06:00:00 3.3 0 Calma 0 Calma 0 975 -0.9 99
2020-03-10 05:00:00 3.4 0 Calma 4 Sudoeste 0 975.3 -0.7 99
2020-03-10 04:00:00 3.6 0 Calma 2 Sudoeste 0 975.4 -0.9 99
2020-03-10 03:00:00 3.4 0 Calma 6 Sudoeste 0 975.9 -0.8 99
2020-03-10 02:00:00 3.8 0 Calma 6 Sudoeste 0 976 -1 99
2020-03-10 01:00:00 4.5 0 Calma 0 Calma 0 976.3 -0.7 99
2020-03-10 00:00:00 5.2 0 Calma 3 Sudoeste 0 976.7 -0.7 99
2020-03-09 23:00:00 5.7 0 Calma 2 Oeste 0 977 -0.2 99
2020-03-09 22:00:00 6.1 0 Calma 9 Oeste 0 977 0.2 97
2020-03-09 21:00:00 6.4 3 Oeste 18 Oeste 0 977.4 1.2 97
2020-03-09 20:00:00 6.5 4 Oeste 23 Oeste 0 977.2 1 94
2020-03-09 19:00:00 7.1 10 Oeste 29 Oeste 0 976.8 0.6 88
2020-03-09 18:00:00 6.9 17 Oeste 31 Oeste 0.1 976.2 -0.1 95
2020-03-09 17:00:00 6.3 12 Oeste 29 Oeste 1 976.2 -0.6 99
2020-03-09 16:00:00 6.5 19 Oeste 42 Oeste 0.6 976.2 -0.8 91
2020-03-09 15:00:00 7.4 12 Oeste 28 Oeste 1.6 976.3 -0.9 98
2020-03-09 14:00:00 6.9 15 Oeste 35 Oeste 0 976.8 -0.3 97
2020-03-09 13:00:00 6.2 14 Oeste 35 Oeste 2 977 0.4 99
2020-03-09 12:00:00 6.7 17 Oeste 31 Oeste 1.3 977.2 1.2 97
2020-03-09 11:00:00 7.2 11 Oeste 26 Oeste 0 977.1 1.9 85
2020-03-09 10:00:00 6.5 14 Oeste 27 Oeste 0 976.6 1.4 95
2020-03-09 09:00:00 5.6 13 Oeste 36 Oeste 1.9 976 1.3 99
2020-03-09 08:00:00 5.8 9 Oeste 29 Oeste 0.3 975.2 0.7 99
2020-03-09 07:00:00 5.6 15 Oeste 26 Oeste 1.2 975.2 0.7 99
2020-03-09 06:00:00 5.7 9 Oeste 26 Oeste 0 974.7 -0.3 97
2020-03-09 05:00:00 5.4 17 Oeste 41 Oeste 1.3 974.5 0 97
2020-03-09 04:00:00 6.1 16 Oeste 32 Oeste 0 974.5 -0.2 97
2020-03-09 03:00:00 6 14 Oeste 33 Oeste 1.3 975 0.8 97
2020-03-09 02:00:00 6.7 10 Oeste 35 Oeste 0 974.5 0.4 91
2020-03-09 01:00:00 6.9 21 Oeste 71 Oeste 0.6 974.7 0.9 93
2020-03-09 00:00:00 7.9 12 Oeste 35 Oeste 0 974.2 0.5 74
2020-03-08 23:00:00 8.3 18 Oeste 42 Oeste 0 974.1 0.9 77
2020-03-08 22:00:00 8.2 14 Oeste 33 Oeste 0 973.8 1.4 83
2020-03-08 21:00:00 8.7 18 Oeste 32 Oeste 0 973.7 2.1 76
2020-03-08 20:00:00 9.1 13 Noroeste 33 Oeste 0 973.2 2 75
2020-03-08 19:00:00 9.7 20 Noroeste 36 Noroeste 0 972.4 1 74
2020-03-08 18:00:00 11.5 5 Noroeste 16 Noroeste 0 971.6 0 70
2020-03-08 17:00:00 12.6 4 Norte 15 Norte 0 971.2 -0.7 59
2020-03-08 16:00:00 13 4 Norte 19 Noroeste 0 971.4 -1.2 55
2020-03-08 15:00:00 13 8 Noroeste 16 Noroeste 0.1 971.6 -1.3 56
2020-03-08 14:00:00 12.4 0 Calma 9 Este 0 971.9 -1.6 65
2020-03-08 13:00:00 10.7 5 Este 10 Este 0 972.6 -1 71
2020-03-08 12:00:00 8.2 5 Este 9 Sudeste 0 972.9 0 99
2020-03-08 11:00:00 5.4 7 Sudeste 11 Sudeste 0 973.5 0.9 99
2020-03-08 10:00:00 4 0 Calma 9 Sudoeste 0 973.6 1.3 99
2020-03-08 09:00:00 1.5 0 Calma 4 Oeste 0 972.9 0.6 99
2020-03-08 08:00:00 0.2 0 Calma 5 Sudeste 0 972.6 0.4 99
2020-03-08 07:00:00 0.1 0 Calma 5 Sudeste 0 972.3 -0.4 99
2020-03-08 06:00:00 0.2 0 Calma 6 Oeste 0 972.3 -1.1 99
2020-03-08 05:00:00 1 0 Calma 7 Sudeste 0 972.2 -1.4 99
2020-03-08 04:00:00 1.3 0 Calma 0 Calma 0 972.7 -1.4 99
2020-03-08 03:00:00 1.8 0 Calma 9 Sudoeste 0 973.4 -1.5 99
2020-03-08 02:00:00 2.3 0 Calma 0 Calma 0 973.6 -1.8 99
2020-03-08 01:00:00 2.5 0 Calma 4 Sudoeste 0 974.1 -1.7 99
2020-03-08 00:00:00 3.4 0 Calma 0 Calma 0 974.9 -0.9 99